Time;durP1;ratioP1;P1;durP2;ratioP2;P2;SDS_P1;SDS_P2;PMS_P1;PMS_P2;Temp;Humidity;BMP_temperature;BMP_pressure;BME280_temperature;BME280_humidity;BME280_pressure;Samples;Min_cycle;Max_cycle;Signal;HPM_P1;HPM_P2
2023/04/15 00:01:36;;;;;;;16.67;7.70;;;6.10;99.90;;;;;;5100569;28;20055;-87
2023/04/15 00:04:01;;;;;;;17.83;8.43;;;6.70;99.90;;;;;;5104336;28;20095;-87
2023/04/15 00:06:27;;;;;;;19.83;8.73;;;6.70;99.90;;;;;;5106944;28;20076;-88
2023/04/15 00:08:54;;;;;;;14.43;7.70;;;6.10;99.90;;;;;;5093333;28;20073;-88
2023/04/15 00:11:20;;;;;;;13.90;8.07;;;6.70;99.90;;;;;;5111915;28;20047;-88
2023/04/15 00:13:46;;;;;;;14.90;7.70;;;6.60;99.90;;;;;;5087420;28;20043;-88
2023/04/15 00:16:17;;;;;;;15.88;6.72;;;6.60;99.90;;;;;;5112366;28;20039;-89
2023/04/15 00:18:45;;;;;;;16.00;7.40;;;6.60;99.90;;;;;;5098114;28;20051;-89
2023/04/15 00:21:11;;;;;;;12.85;6.78;;;6.20;99.90;;;;;;5115739;28;20047;-88
2023/04/15 00:23:52;;;;;;;13.43;6.28;;;6.40;99.90;;;;;;5117654;28;20117;-88
2023/04/15 00:26:18;;;;;;;11.57;6.30;;;6.90;99.90;;;;;;5112305;28;20046;-89
2023/04/15 00:28:44;;;;;;;13.30;6.43;;;6.40;99.90;;;;;;5107523;28;20368;-88
2023/04/15 00:31:10;;;;;;;14.43;6.78;;;6.30;99.90;;;;;;5091625;28;20096;-88
2023/04/15 00:33:36;;;;;;;12.35;7.07;;;6.30;99.90;;;;;;5113760;28;20047;-89
2023/04/15 00:36:02;;;;;;;15.48;7.40;;;6.10;99.90;;;;;;5098699;28;20077;-88
2023/04/15 00:38:28;;;;;;;14.13;6.93;;;6.20;99.90;;;;;;5131338;28;20036;-88
2023/04/15 00:40:55;;;;;;;14.80;6.75;;;6.20;99.90;;;;;;5132445;28;20077;-90
2023/04/15 00:43:25;;;;;;;15.00;7.97;;;5.50;99.90;;;;;;5116745;28;20063;-89
2023/04/15 00:45:57;;;;;;;15.05;7.50;;;6.50;99.90;;;;;;5113394;28;20043;-88
2023/04/15 00:48:23;;;;;;;;;;;6.10;99.90;;;;;;5097181;28;20059;-89
2023/04/15 00:50:53;;;;;;;11.25;7.40;;;5.40;99.90;;;;;;5115591;28;19924;-89
2023/04/15 00:53:19;;;;;;;12.52;7.43;;;5.90;99.90;;;;;;5094987;28;20040;-89
2023/04/15 00:55:45;;;;;;;12.80;6.70;;;5.90;99.90;;;;;;5096343;28;20101;-90
2023/04/15 00:58:11;;;;;;;14.40;7.10;;;5.30;99.90;;;;;;5078162;28;20044;-89
2023/04/15 01:00:37;;;;;;;14.15;7.65;;;5.60;99.90;;;;;;5069022;28;20055;-88
2023/04/15 01:03:02;;;;;;;13.90;7.60;;;5.90;99.90;;;;;;5067199;28;20044;-88
2023/04/15 01:05:30;;;;;;;14.30;7.50;;;5.90;99.90;;;;;;5078525;28;20036;-89
2023/04/15 01:07:59;;;;;;;12.50;7.75;;;5.30;99.90;;;;;;5065526;28;20073;-89
2023/04/15 01:10:26;;;;;;;13.18;8.00;;;5.00;99.90;;;;;;5081772;28;20052;-90
2023/04/15 01:12:55;;;;;;;13.02;7.72;;;6.10;99.90;;;;;;5113282;28;20035;-89
2023/04/15 01:15:22;;;;;;;13.18;7.63;;;5.80;99.90;;;;;;5111249;28;20040;-90
2023/04/15 01:17:48;;;;;;;15.18;9.02;;;5.70;99.90;;;;;;5094322;28;20107;-89
2023/04/15 01:20:16;;;;;;;12.00;7.80;;;5.70;99.90;;;;;;5097039;28;20047;-89
2023/04/15 01:22:50;;;;;;;12.68;8.20;;;5.70;99.90;;;;;;5094646;28;20059;-89
2023/04/15 01:25:32;;;;;;;14.88;8.40;;;5.60;99.90;;;;;;5074930;28;20051;-89
2023/04/15 01:28:11;;;;;;;14.45;8.45;;;5.70;99.90;;;;;;5114825;28;20097;-88
2023/04/15 01:31:13;;;;;;;14.63;8.40;;;5.40;99.90;;;;;;5119236;28;20039;-89
2023/04/15 01:33:50;;;;;;;15.40;9.57;;;5.50;99.90;;;;;;5117820;28;20039;-89
2023/04/15 01:36:38;;;;;;;13.43;8.27;;;5.20;99.90;;;;;;5117568;28;20103;-89
2023/04/15 01:39:05;;;;;;;14.10;8.23;;;5.60;99.90;;;;;;5109486;28;20048;-89
2023/04/15 01:41:33;;;;;;;13.23;7.95;;;5.60;99.90;;;;;;5072284;28;20055;-89
2023/04/15 01:44:11;;;;;;;13.60;8.10;;;5.60;99.90;;;;;;5081823;28;20094;-89
2023/04/15 01:46:38;;;;;;;15.55;8.90;;;4.90;99.90;;;;;;5098356;28;20040;-88
2023/04/15 01:49:12;;;;;;;15.20;9.00;;;4.90;99.90;;;;;;5116524;28;20040;-89
2023/04/15 01:51:42;;;;;;;12.93;8.32;;;5.60;99.90;;;;;;5135284;27;20031;-90
2023/04/15 01:54:12;;;;;;;16.60;9.98;;;4.90;99.90;;;;;;5101846;28;20051;-89
2023/04/15 01:56:45;;;;;;;13.60;9.07;;;5.50;99.90;;;;;;5101836;28;20081;-90
2023/04/15 01:59:14;;;;;;;15.82;8.85;;;5.50;99.90;;;;;;5116265;28;20118;-89
2023/04/15 02:01:41;;;;;;;14.43;8.70;;;5.90;99.90;;;;;;5096131;28;20039;-89
2023/04/15 02:04:08;;;;;;;14.48;8.43;;;5.60;99.90;;;;;;5088960;28;20044;-88
2023/04/15 02:06:35;;;;;;;12.88;8.52;;;5.50;99.90;;;;;;5085331;28;20043;-88
2023/04/15 02:09:01;;;;;;;15.20;8.63;;;5.20;99.90;;;;;;5098933;28;20079;-88
2023/04/15 02:11:29;;;;;;;13.40;8.25;;;5.50;99.90;;;;;;5087646;28;20523;-88
2023/04/15 02:13:55;;;;;;;13.70;9.05;;;5.40;99.90;;;;;;5103748;28;20044;-88
2023/04/15 02:16:21;;;;;;;14.43;9.43;;;5.40;99.90;;;;;;5089425;28;20046;-88
2023/04/15 02:18:47;;;;;;;16.98;9.82;;;5.30;99.90;;;;;;5105977;28;20043;-88
2023/04/15 02:21:14;;;;;;;13.27;9.00;;;4.90;99.90;;;;;;5090720;28;20062;-88
2023/04/15 02:23:40;;;;;;;16.23;9.65;;;4.40;99.90;;;;;;5113880;28;20043;-88
2023/04/15 02:26:17;;;;;;;16.38;9.38;;;5.30;99.90;;;;;;5128297;28;20077;-88
2023/04/15 02:28:43;;;;;;;16.30;10.63;;;5.30;99.90;;;;;;5107756;28;20043;-88
2023/04/15 02:31:14;;;;;;;17.15;10.85;;;5.30;99.90;;;;;;5079290;28;20073;-88
2023/04/15 02:33:48;;;;;;;15.38;11.15;;;5.30;99.90;;;;;;5102768;28;20048;-88
2023/04/15 02:36:25;;;;;;;16.67;11.43;;;5.30;99.90;;;;;;5105402;28;20071;-88
2023/04/15 02:39:15;;;;;;;18.98;11.77;;;5.90;99.90;;;;;;5120114;28;20034;-89
2023/04/15 02:41:51;;;;;;;16.38;11.52;;;4.90;99.90;;;;;;5137162;28;20019;-88
2023/04/15 02:44:32;;;;;;;18.30;12.57;;;4.70;99.90;;;;;;5117854;28;20087;-90
2023/04/15 02:47:06;;;;;;;18.95;12.50;;;5.20;99.90;;;;;;5106337;28;20060;-89
2023/04/15 02:49:51;;;;;;;21.05;13.50;;;4.20;99.90;;;;;;5122097;28;20130;-89
2023/04/15 02:52:23;;;;;;;18.67;12.40;;;5.10;99.90;;;;;;5132511;28;20107;-88
2023/04/15 02:55:01;;;;;;;19.30;13.13;;;5.10;99.90;;;;;;5102567;28;20044;-90
2023/04/15 02:57:47;;;;;;;17.92;12.27;;;5.00;99.90;;;;;;5120577;28;20051;-89
2023/04/15 03:00:24;;;;;;;16.70;12.05;;;4.60;99.90;;;;;;5121334;28;20036;-88
2023/04/15 03:03:10;;;;;;;18.92;12.57;;;4.20;99.90;;;;;;5136748;28;20058;-89
2023/04/15 03:05:38;;;;;;;18.73;12.70;;;4.70;99.90;;;;;;5097444;28;20494;-89
2023/04/15 03:08:04;;;;;;;18.58;12.20;;;4.90;99.90;;;;;;5095469;28;20063;-89
2023/04/15 03:10:37;;;;;;;19.10;12.20;;;4.10;99.90;;;;;;5118481;28;20044;-89
2023/04/15 03:13:04;;;;;;;18.77;12.52;;;4.00;99.90;;;;;;5117495;28;20115;-89
2023/04/15 03:15:32;;;;;;;21.38;12.32;;;4.90;99.90;;;;;;5115677;28;20043;-88
2023/04/15 03:18:02;;;;;;;17.92;12.05;;;3.80;99.90;;;;;;5113589;28;20107;-88
2023/04/15 03:20:35;;;;;;;20.60;12.63;;;4.30;99.90;;;;;;5097559;28;20095;-88
2023/04/15 03:23:06;;;;;;;18.58;12.27;;;3.90;99.90;;;;;;5081708;28;20091;-88
2023/04/15 03:25:42;;;;;;;20.23;12.82;;;4.30;99.90;;;;;;5099620;28;20036;-88
2023/04/15 03:28:38;;;;;;;18.33;12.77;;;4.40;99.90;;;;;;5100511;28;20035;-89
2023/04/15 03:31:16;;;;;;;20.52;13.00;;;3.80;99.90;;;;;;5071650;28;20163;-89
2023/04/15 03:33:46;;;;;;;19.90;12.80;;;4.80;99.90;;;;;;5111009;28;20040;-88
2023/04/15 03:36:15;;;;;;;20.77;13.48;;;4.70;99.90;;;;;;5088265;28;20036;-88
2023/04/15 03:38:50;;;;;;;18.25;13.15;;;4.70;99.90;;;;;;5092499;28;20058;-88
2023/04/15 03:41:16;;;;;;;19.38;13.48;;;4.70;99.90;;;;;;5112891;28;20060;-88
2023/04/15 03:43:47;;;;;;;22.17;13.88;;;4.60;99.90;;;;;;5093417;28;20047;-88
2023/04/15 03:49:41;;;;;;;20.67;13.90;;;4.70;99.90;;;;;;5075047;28;20045;-89
2023/04/15 03:55:05;;;;;;;22.75;14.43;;;4.70;99.90;;;;;;5243096;22;20045;-89
2023/04/15 03:57:54;;;;;;;20.90;14.10;;;4.30;99.90;;;;;;5049068;28;20080;-87
2023/04/15 04:00:20;;;;;;;20.92;14.25;;;5.10;99.90;;;;;;5018587;28;20041;-88
2023/04/15 04:02:46;;;;;;;21.27;14.65;;;4.60;99.90;;;;;;5033196;28;20490;-87
2023/04/15 04:05:12;;;;;;;22.05;15.38;;;3.60;99.90;;;;;;5035179;28;20112;-88
2023/04/15 04:07:41;;;;;;;21.63;14.73;;;4.50;99.90;;;;;;5052746;28;20055;-89
2023/04/15 04:10:10;;;;;;;21.60;15.57;;;4.50;99.90;;;;;;5034814;28;20038;-88
2023/04/15 04:12:36;;;;;;;24.25;17.33;;;3.70;99.90;;;;;;5019590;28;20049;-87
2023/04/15 04:15:02;;;;;;;25.15;16.90;;;4.50;99.90;;;;;;5035484;28;20489;-88
2023/04/15 04:17:31;;;;;;;23.85;16.42;;;3.50;99.90;;;;;;5032698;28;20072;-88
2023/04/15 04:20:04;;;;;;;22.10;16.35;;;4.50;99.90;;;;;;5021657;28;20045;-87
2023/04/15 04:22:36;;;;;;;22.60;16.33;;;4.50;99.90;;;;;;5009240;28;20093;-87
2023/04/15 04:31:28;;;;;;;20.90;15.63;;;4.50;99.90;;;;;;5991778;22;20056;-88
2023/04/15 04:34:19;;;;;;;22.40;15.30;;;4.20;99.90;;;;;;5076847;28;20060;-89
2023/04/15 04:36:58;;;;;;;23.25;16.35;;;4.40;99.90;;;;;;5058826;28;20036;-89
2023/04/15 04:39:26;;;;;;;20.65;15.10;;;3.50;99.90;;;;;;5051991;28;20052;-89
2023/04/15 04:41:56;;;;;;;22.40;15.52;;;3.50;99.90;;;;;;5034384;28;20041;-89
2023/04/15 04:44:22;;;;;;;22.33;15.82;;;4.40;99.90;;;;;;5033400;28;20447;-90
2023/04/15 04:46:48;;;;;;;23.63;16.20;;;4.40;99.90;;;;;;5037412;28;20108;-90
2023/04/15 04:49:14;;;;;;;24.77;17.15;;;4.40;99.90;;;;;;5037859;28;20052;-89
2023/04/15 04:51:43;;;;;;;24.50;16.73;;;3.60;99.90;;;;;;5055766;28;20049;-89
2023/04/15 04:54:11;;;;;;;22.83;16.33;;;4.50;99.90;;;;;;5059147;28;20029;-90
2023/04/15 04:56:38;;;;;;;24.92;16.48;;;4.40;99.90;;;;;;5056932;28;20061;-89
2023/04/15 04:59:05;;;;;;;25.48;16.73;;;4.50;99.90;;;;;;5054184;28;20056;-90
2023/04/15 05:01:33;;;;;;;24.67;17.60;;;4.60;99.90;;;;;;5058640;28;20075;-89
2023/04/15 05:04:03;;;;;;;22.90;16.10;;;4.00;99.90;;;;;;5075880;28;20052;-90
2023/04/15 05:06:34;;;;;;;24.83;16.85;;;4.50;99.90;;;;;;5075813;28;20033;-89
2023/04/15 05:09:07;;;;;;;26.48;17.75;;;4.50;99.90;;;;;;5028733;28;20037;-89
2023/04/15 05:11:42;;;;;;;26.30;17.98;;;4.60;99.90;;;;;;5061637;28;20037;-89
2023/04/15 05:14:12;;;;;;;23.85;17.60;;;4.60;99.90;;;;;;5060999;28;20040;-89
2023/04/15 05:16:57;;;;;;;25.75;18.95;;;4.60;99.90;;;;;;5041734;28;20060;-90
2023/04/15 05:19:29;;;;;;;26.45;18.42;;;5.00;99.90;;;;;;5062391;28;20124;-89
2023/04/15 05:21:55;;;;;;;27.35;19.13;;;4.60;99.90;;;;;;5055983;28;20112;-89
2023/04/15 05:24:22;;;;;;;23.42;16.60;;;4.70;99.90;;;;;;5054169;28;20045;-90
2023/04/15 05:26:50;;;;;;;27.95;18.92;;;4.70;99.90;;;;;;5054633;28;20048;-90
2023/04/15 05:29:18;;;;;;;26.80;19.40;;;4.80;99.90;;;;;;5057785;28;20028;-89
2023/04/15 05:31:49;;;;;;;34.97;23.58;;;5.60;99.90;;;;;;5059970;28;20060;-89
2023/04/15 05:34:21;;;;;;;30.80;22.10;;;4.40;99.90;;;;;;5061764;28;20148;-89
2023/04/15 05:37:09;;;;;;;31.70;21.85;;;4.10;99.90;;;;;;5061274;28;20108;-89
2023/04/15 05:39:50;;;;;;;30.60;20.80;;;4.20;99.90;;;;;;5418210;22;20031;-88
2023/04/15 05:42:23;;;;;;;29.42;20.40;;;5.20;99.90;;;;;;5075765;28;20079;-89
2023/04/15 05:44:54;;;;;;;30.75;21.80;;;5.50;99.90;;;;;;5075568;28;20047;-90
2023/04/15 05:47:29;;;;;;;30.05;21.00;;;4.80;99.90;;;;;;5145301;22;20382;-89
2023/04/15 05:50:07;;;;;;;32.17;20.73;;;5.40;99.90;;;;;;5097118;28;20056;-89
2023/04/15 05:52:47;;;;;;;;;;;;;;;;;;;;;
2023/04/15 05:55:17;;;;;;;29.20;21.70;;;5.50;99.90;;;;;;5061402;28;20286;-88
2023/04/15 05:57:43;;;;;;;29.75;21.42;;;5.50;99.90;;;;;;5039998;28;20116;-89
2023/04/15 06:00:10;;;;;;;31.50;21.77;;;4.90;99.90;;;;;;5053810;28;20060;-88
2023/04/15 06:02:39;;;;;;;29.35;20.63;;;5.70;99.90;;;;;;5058648;28;20044;-88
2023/04/15 06:05:10;;;;;;;29.20;20.33;;;4.80;99.90;;;;;;5057617;28;20033;-89
2023/04/15 06:07:48;;;;;;;29.55;20.83;;;5.10;99.90;;;;;;5044744;28;20041;-88
2023/04/15 06:10:14;;;;;;;26.92;19.88;;;5.70;99.90;;;;;;5073595;28;20060;-88
2023/04/15 06:12:43;;;;;;;29.42;19.98;;;5.90;99.90;;;;;;5052730;28;20047;-88
2023/04/15 06:15:10;;;;;;;27.48;18.52;;;5.90;99.90;;;;;;5067349;28;20057;-87
2023/04/15 06:17:38;;;;;;;29.08;19.80;;;6.00;99.90;;;;;;5020624;28;20036;-88
2023/04/15 06:20:05;;;;;;;27.73;20.15;;;6.00;99.90;;;;;;5053031;28;20082;-87
2023/04/15 06:22:31;;;;;;;28.52;20.45;;;6.00;99.90;;;;;;5069922;28;20059;-87
2023/04/15 06:24:57;;;;;;;28.88;19.63;;;6.00;99.90;;;;;;5051862;28;20100;-88
2023/04/15 06:27:23;;;;;;;27.17;20.02;;;6.00;99.90;;;;;;5048240;28;20049;-87
2023/04/15 06:29:49;;;;;;;26.35;19.42;;;6.00;99.90;;;;;;5028705;28;20052;-88
2023/04/15 06:32:15;;;;;;;26.65;19.52;;;6.10;99.90;;;;;;5016535;28;20084;-87
2023/04/15 06:34:43;;;;;;;28.77;19.75;;;6.00;99.90;;;;;;5051650;28;20045;-88
2023/04/15 06:37:27;;;;;;;27.05;19.75;;;6.10;99.90;;;;;;5051770;28;20140;-87
2023/04/15 06:39:53;;;;;;;28.13;19.70;;;6.10;99.90;;;;;;5027645;28;20048;-87
2023/04/15 06:42:19;;;;;;;27.55;19.27;;;6.10;99.90;;;;;;5027895;28;20048;-87
2023/04/15 06:44:44;;;;;;;30.50;20.20;;;6.20;99.90;;;;;;5011388;28;20041;-87
2023/04/15 06:47:13;;;;;;;30.23;20.15;;;5.20;99.90;;;;;;5048856;28;20049;-87
2023/04/15 06:49:43;;;;;;;28.08;20.15;;;6.20;99.90;;;;;;5018440;28;20053;-88
2023/04/15 06:52:11;;;;;;;26.20;18.63;;;6.20;99.90;;;;;;5051291;28;20060;-87
2023/04/15 06:54:37;;;;;;;27.02;19.55;;;6.40;99.90;;;;;;5052495;28;20049;-88
2023/04/15 06:57:08;;;;;;;25.67;17.77;;;6.40;99.90;;;;;;5051440;28;20052;-87
2023/04/15 06:59:34;;;;;;;25.83;18.02;;;6.20;99.90;;;;;;5063804;28;20109;-87
2023/04/15 07:02:00;;;;;;;23.13;16.27;;;6.60;99.90;;;;;;5044794;28;20088;-86
2023/04/15 07:04:26;;;;;;;23.70;16.02;;;5.90;99.90;;;;;;5026311;28;20413;-87
2023/04/15 07:06:55;;;;;;;23.10;16.02;;;6.80;99.90;;;;;;5027378;28;20041;-87
2023/04/15 07:09:25;;;;;;;21.02;14.38;;;6.90;99.90;;;;;;5045495;28;20049;-87
2023/04/15 07:11:51;;;;;;;21.23;14.65;;;7.00;99.90;;;;;;5026924;28;20137;-87
2023/04/15 07:14:17;;;;;;;15.40;11.25;;;7.10;99.90;;;;;;5009450;28;20045;-86
2023/04/15 07:16:43;;;;;;;14.13;10.00;;;7.20;99.90;;;;;;5040348;28;20049;-86
2023/04/15 07:19:08;;;;;;;15.23;10.52;;;7.30;99.90;;;;;;5010254;28;20469;-86
2023/04/15 07:21:34;;;;;;;13.45;9.77;;;7.40;99.90;;;;;;5063704;28;20049;-87
2023/04/15 07:24:00;;;;;;;14.55;9.80;;;7.60;99.90;;;;;;5061501;28;20048;-87
2023/04/15 07:26:26;;;;;;;14.57;9.80;;;6.90;99.90;;;;;;5076415;28;20048;-85
2023/04/15 07:28:51;;;;;;;14.70;9.80;;;7.80;99.90;;;;;;5060161;28;20041;-84
2023/04/15 07:31:18;;;;;;;13.70;9.73;;;7.80;99.90;;;;;;5077091;28;20044;-85
2023/04/15 07:36:19;;;;;;;15.52;9.38;;;7.90;99.90;;;;;;4976665;22;20062;-84
2023/04/15 07:38:45;;;;;;;16.88;9.73;;;7.90;99.90;;;;;;5021209;28;20053;-82
2023/04/15 07:41:11;;;;;;;14.30;9.70;;;8.00;99.90;;;;;;5026343;28;20041;-86
2023/04/15 07:43:37;;;;;;;15.25;10.27;;;8.10;99.90;;;;;;5009918;28;20069;-86
2023/04/15 07:46:08;;;;;;;14.30;10.00;;;8.10;99.90;;;;;;5028317;28;20052;-84
2023/04/15 07:48:34;;;;;;;19.23;10.57;;;8.10;99.90;;;;;;5021482;28;20041;-83
2023/04/15 07:51:01;;;;;;;14.43;10.18;;;8.20;99.90;;;;;;5020745;28;20053;-84
2023/04/15 07:53:27;;;;;;;15.43;10.15;;;8.30;99.90;;;;;;5020246;28;20053;-84
2023/04/15 07:55:53;;;;;;;16.40;10.63;;;8.30;99.90;;;;;;5020281;28;20046;-82
2023/04/15 07:58:18;;;;;;;15.27;9.98;;;8.40;99.90;;;;;;5021113;28;20139;-84
2023/04/15 08:00:44;;;;;;;13.80;10.05;;;8.40;99.90;;;;;;5041070;28;20096;-83
2023/04/15 08:03:12;;;;;;;15.25;10.15;;;8.50;99.90;;;;;;5037466;28;20130;-85
2023/04/15 08:05:38;;;;;;;14.15;10.02;;;8.50;99.90;;;;;;5019536;28;20111;-83
2023/04/15 08:08:04;;;;;;;13.23;8.80;;;8.50;99.90;;;;;;5035776;28;20049;-84
2023/04/15 08:10:30;;;;;;;15.82;9.98;;;8.60;99.90;;;;;;5037307;28;20095;-84
2023/04/15 08:12:59;;;;;;;13.73;9.90;;;8.60;99.90;;;;;;5024556;28;20041;-83
2023/04/15 08:15:26;;;;;;;11.93;7.90;;;8.60;99.90;;;;;;5021055;28;20049;-86
2023/04/15 08:17:51;;;;;;;13.18;8.60;;;8.60;99.90;;;;;;5037670;28;20056;-86
2023/04/15 08:20:18;;;;;;;11.45;7.13;;;8.60;99.90;;;;;;5037087;28;20045;-87
2023/04/15 08:22:44;;;;;;;11.65;7.25;;;8.70;99.90;;;;;;4992331;28;20050;-87
2023/04/15 08:25:09;;;;;;;10.23;6.50;;;8.80;99.90;;;;;;5022949;28;20052;-84
2023/04/15 08:27:35;;;;;;;9.55;6.35;;;8.80;99.90;;;;;;5038492;28;20060;-83
2023/04/15 08:30:01;;;;;;;9.57;5.25;;;8.90;99.90;;;;;;5021147;28;20060;-87
2023/04/15 08:32:27;;;;;;;10.73;5.47;;;8.90;99.90;;;;;;5041154;28;20053;-88
2023/04/15 08:34:56;;;;;;;9.98;4.90;;;8.90;99.90;;;;;;5010029;28;20553;-87
2023/04/15 08:37:23;;;;;;;9.35;5.40;;;8.90;99.90;;;;;;5003840;28;20089;-86
2023/04/15 08:39:49;;;;;;;8.57;5.20;;;9.00;99.90;;;;;;5011374;28;20088;-86
2023/04/15 08:42:30;;;;;;;9.05;5.00;;;9.20;99.90;;;;;;5042105;28;20107;-86
2023/04/15 08:44:59;;;;;;;8.38;4.70;;;9.20;99.90;;;;;;5040581;28;20099;-84
2023/04/15 08:47:30;;;;;;;7.75;4.53;;;9.20;99.90;;;;;;5022537;28;20112;-84
2023/04/15 08:49:57;;;;;;;8.30;4.78;;;8.40;99.90;;;;;;5037656;28;20136;-86
2023/04/15 08:52:26;;;;;;;8.75;4.80;;;9.10;99.90;;;;;;5021625;28;20102;-85
2023/04/15 08:54:57;;;;;;;8.05;4.93;;;9.10;99.90;;;;;;5020943;28;20056;-83
2023/04/15 08:57:28;;;;;;;8.25;4.68;;;9.10;99.90;;;;;;5020001;28;20412;-84
2023/04/15 08:59:57;;;;;;;8.88;4.70;;;9.00;99.90;;;;;;5037396;28;20155;-85
2023/04/15 09:02:26;;;;;;;9.18;4.90;;;8.90;99.90;;;;;;5002718;28;20100;-84
2023/04/15 09:04:52;;;;;;;7.22;4.38;;;9.00;99.90;;;;;;5018379;28;20045;-84
2023/04/15 09:07:18;;;;;;;8.13;4.32;;;9.10;99.90;;;;;;5034785;28;20046;-83
2023/04/15 09:09:44;;;;;;;7.82;4.32;;;9.20;99.90;;;;;;5019550;28;20385;-83
2023/04/15 09:12:11;;;;;;;9.45;4.47;;;9.20;99.90;;;;;;5038172;28;20041;-83
2023/04/15 09:14:39;;;;;;;8.93;4.80;;;9.10;99.90;;;;;;5018160;28;20443;-84
2023/04/15 09:17:09;;;;;;;7.85;4.63;;;9.00;99.90;;;;;;5018238;28;20409;-83
2023/04/15 09:19:35;;;;;;;7.10;4.18;;;9.00;99.90;;;;;;5034719;28;20060;-84
2023/04/15 09:22:01;;;;;;;9.48;4.55;;;8.90;99.90;;;;;;5034387;28;20045;-84
2023/04/15 09:24:38;;;;;;;6.75;4.30;;;9.00;99.90;;;;;;5017299;28;20057;-84
2023/04/15 09:27:04;;;;;;;8.88;4.32;;;9.00;99.90;;;;;;5017618;28;20048;-84
2023/04/15 09:29:30;;;;;;;9.50;4.65;;;9.00;99.90;;;;;;5018187;28;20049;-84
2023/04/15 09:31:56;;;;;;;8.57;4.22;;;9.10;99.90;;;;;;5001445;28;20400;-83
2023/04/15 09:34:35;;;;;;;8.00;4.32;;;9.10;99.90;;;;;;5034341;28;20045;-84
2023/04/15 09:37:00;;;;;;;9.77;4.40;;;9.20;99.90;;;;;;5017314;28;20057;-84
2023/04/15 09:39:26;;;;;;;8.68;4.03;;;9.20;99.90;;;;;;5017423;28;20068;-83
2023/04/15 09:42:06;;;;;;;7.97;3.97;;;9.10;99.90;;;;;;5035916;28;20064;-83
2023/04/15 09:44:31;;;;;;;7.97;4.00;;;9.10;99.90;;;;;;5019932;28;20052;-84
2023/04/15 09:47:00;;;;;;;9.90;4.15;;;9.10;99.90;;;;;;5021253;28;20151;-84
2023/04/15 09:49:27;;;;;;;10.15;4.35;;;9.10;99.90;;;;;;5002514;28;20203;-83
2023/04/15 09:51:59;;;;;;;7.15;3.72;;;9.20;99.90;;;;;;5017164;28;20057;-83
2023/04/15 09:54:35;;;;;;;8.95;3.92;;;9.20;99.90;;;;;;5034068;28;20053;-82
2023/04/15 09:57:08;;;;;;;8.40;3.85;;;9.20;99.90;;;;;;5033002;28;20120;-83
2023/04/15 09:59:34;;;;;;;8.95;3.97;;;9.20;99.90;;;;;;5033574;28;20484;-84
2023/04/15 10:02:05;;;;;;;8.32;3.67;;;9.20;99.90;;;;;;5019801;28;20054;-87
2023/04/15 10:04:35;;;;;;;8.82;3.30;;;9.20;99.90;;;;;;5033885;28;20124;-84
2023/04/15 10:07:03;;;;;;;7.38;3.30;;;9.20;99.90;;;;;;5019050;28;20191;-84
2023/04/15 10:09:30;;;;;;;7.05;3.20;;;9.20;99.90;;;;;;5035014;28;20432;-82
2023/04/15 10:11:56;;;;;;;7.30;3.10;;;9.20;99.90;;;;;;5040355;28;20061;-86
2023/04/15 10:14:24;;;;;;;7.70;3.33;;;9.20;99.90;;;;;;5040048;28;20049;-83
2023/04/15 10:16:51;;;;;;;8.98;3.25;;;9.20;99.90;;;;;;5022071;28;20050;-87
2023/04/15 10:19:21;;;;;;;8.07;3.50;;;9.20;99.90;;;;;;5040665;28;20056;-87
2023/04/15 10:21:49;;;;;;;6.65;3.17;;;8.50;99.90;;;;;;5029161;28;20041;-87
2023/04/15 10:24:21;;;;;;;6.65;3.03;;;9.30;99.90;;;;;;5040587;28;20056;-88
2023/04/15 10:26:47;;;;;;;6.43;3.00;;;9.40;99.90;;;;;;5021203;28;20501;-86
2023/04/15 10:29:13;;;;;;;7.85;3.08;;;9.30;99.90;;;;;;5023853;28;20045;-86
2023/04/15 10:31:40;;;;;;;7.07;3.03;;;9.40;99.90;;;;;;5040159;28;20076;-86
2023/04/15 10:34:07;;;;;;;7.65;3.30;;;9.40;99.90;;;;;;5044542;28;20093;-86
2023/04/15 10:36:33;;;;;;;8.13;3.33;;;9.40;99.90;;;;;;5042543;28;20057;-86
2023/04/15 10:39:01;;;;;;;6.78;3.10;;;9.50;99.90;;;;;;5034118;28;20056;-86
2023/04/15 10:41:33;;;;;;;6.85;2.97;;;9.40;99.90;;;;;;5018991;28;20045;-87
2023/04/15 10:44:03;;;;;;;8.15;3.10;;;10.10;99.90;;;;;;5024743;28;20050;-85
2023/04/15 10:46:43;;;;;;;7.68;3.40;;;10.00;99.90;;;;;;5030468;28;20049;-85
2023/04/15 10:49:25;;;;;;;7.57;3.03;;;9.40;99.90;;;;;;5050771;28;20053;-85
2023/04/15 10:51:56;;;;;;;8.88;3.33;;;9.40;99.90;;;;;;5044798;28;20056;-85
2023/04/15 10:54:28;;;;;;;9.38;3.28;;;8.50;99.90;;;;;;5051387;28;20064;-86
2023/04/15 10:57:02;;;;;;;7.57;3.28;;;10.60;99.90;;;;;;5049392;28;20077;-86
2023/04/15 10:59:32;;;;;;;6.38;3.08;;;9.40;99.90;;;;;;5041696;28;20054;-86
2023/04/15 11:02:03;;;;;;;6.88;3.17;;;9.40;99.90;;;;;;5031653;28;20053;-86
2023/04/15 11:04:57;;;;;;;7.18;3.58;;;9.40;99.90;;;;;;5047774;28;20041;-86
2023/04/15 11:07:48;;;;;;;8.50;3.60;;;9.40;99.90;;;;;;5027077;28;20168;-85
2023/04/15 11:10:17;;;;;;;8.27;3.15;;;9.40;99.90;;;;;;5049531;28;20454;-85
2023/04/15 11:12:44;;;;;;;7.45;2.92;;;9.40;99.90;;;;;;5045435;28;20084;-86
2023/04/15 11:15:33;;;;;;;6.20;2.58;;;9.50;99.90;;;;;;5040565;28;20050;-84
2023/04/15 11:18:17;;;;;;;5.93;2.65;;;9.40;99.90;;;;;;5023584;28;20053;-84
2023/04/15 11:20:58;;;;;;;8.27;2.60;;;9.50;99.90;;;;;;5040406;28;20045;-83
2023/04/15 11:23:34;;;;;;;7.07;2.67;;;9.40;99.90;;;;;;5041809;28;20049;-84
2023/04/15 11:26:02;;;;;;;6.07;2.58;;;9.50;99.90;;;;;;5023458;28;20114;-83
2023/04/15 11:28:30;;;;;;;8.07;2.60;;;9.60;99.90;;;;;;5042476;28;20057;-85
2023/04/15 11:30:56;;;;;;;5.60;2.40;;;9.60;99.90;;;;;;5041269;28;20049;-85
2023/04/15 11:33:23;;;;;;;6.70;2.72;;;9.60;99.90;;;;;;5041480;28;20057;-85
2023/04/15 11:35:51;;;;;;;5.65;2.50;;;9.60;99.90;;;;;;5040547;28;20053;-83
2023/04/15 11:38:17;;;;;;;6.55;2.35;;;9.70;99.90;;;;;;5038966;28;20053;-85
2023/04/15 11:40:44;;;;;;;7.95;2.40;;;9.60;99.90;;;;;;5020315;28;20052;-84
2023/04/15 11:43:21;;;;;;;6.13;2.30;;;9.60;99.90;;;;;;5019059;28;20045;-82
2023/04/15 11:46:00;;;;;;;7.40;2.47;;;9.60;99.90;;;;;;5019723;28;20097;-81
2023/04/15 11:48:32;;;;;;;6.57;2.40;;;9.50;99.90;;;;;;5036129;28;20085;-83
2023/04/15 11:51:06;;;;;;;7.10;2.63;;;9.50;99.90;;;;;;5035866;28;20045;-85
2023/04/15 11:53:48;;;;;;;5.97;2.53;;;9.60;99.90;;;;;;5037084;28;20469;-85
2023/04/15 11:56:23;;;;;;;7.47;2.70;;;9.70;99.90;;;;;;5020255;28;20132;-85
2023/04/15 11:58:55;;;;;;;7.78;2.70;;;9.60;99.90;;;;;;5024447;28;20189;-84
2023/04/15 12:01:30;;;;;;;;;;;9.70;99.90;;;;;;5030851;28;20084;-84
2023/04/15 12:03:58;;;;;;;7.82;2.50;;;9.60;99.90;;;;;;5022141;28;19928;-84
2023/04/15 12:06:30;;;;;;;8.60;2.60;;;9.60;99.90;;;;;;5041454;28;20132;-85
2023/04/15 12:09:09;;;;;;;;;;;9.60;99.90;;;;;;5045768;28;20053;-85
2023/04/15 12:11:43;;;;;;;8.93;2.85;;;9.80;99.90;;;;;;5029770;28;19976;-87
2023/04/15 12:14:12;;;;;;;7.18;2.80;;;9.50;99.90;;;;;;5046315;28;20049;-84
2023/04/15 12:16:41;;;;;;;7.75;2.63;;;9.90;99.90;;;;;;5031242;28;20045;-84
2023/04/15 12:19:10;;;;;;;9.13;2.78;;;9.60;99.90;;;;;;5026516;28;20037;-86
2023/04/15 12:21:39;;;;;;;8.57;3.13;;;9.60;99.90;;;;;;5042958;28;20060;-87
2023/04/15 12:24:07;;;;;;;9.18;3.13;;;9.50;99.90;;;;;;5034688;28;20052;-88
2023/04/15 12:26:44;;;;;;;8.57;3.08;;;9.40;99.90;;;;;;5011113;28;20049;-88
2023/04/15 12:29:11;;;;;;;9.30;2.75;;;9.30;99.90;;;;;;5031838;28;20508;-89
2023/04/15 12:31:48;;;;;;;8.07;2.58;;;9.30;99.90;;;;;;5018345;28;20055;-89
2023/04/15 12:34:14;;;;;;;6.55;2.58;;;9.30;99.90;;;;;;5021563;28;20053;-87
2023/04/15 12:36:40;;;;;;;10.65;3.00;;;9.30;99.90;;;;;;5037432;28;20053;-88
2023/04/15 12:39:06;;;;;;;9.18;2.53;;;7.80;99.90;;;;;;5035277;28;20053;-86
2023/04/15 12:41:32;;;;;;;8.85;2.90;;;9.30;99.90;;;;;;5035951;28;20046;-87
2023/04/15 12:43:58;;;;;;;9.82;2.80;;;9.20;99.90;;;;;;5018137;28;20155;-87
2023/04/15 12:46:24;;;;;;;7.10;2.63;;;9.30;99.90;;;;;;5018368;28;20049;-86
2023/04/15 12:48:53;;;;;;;8.02;2.70;;;9.20;99.90;;;;;;5034705;28;20044;-87
2023/04/15 12:51:22;;;;;;;7.68;2.50;;;9.20;99.90;;;;;;4999821;28;20061;-86
2023/04/15 12:53:48;;;;;;;9.50;2.60;;;9.10;99.90;;;;;;5033134;28;20160;-86
2023/04/15 12:56:15;;;;;;;9.48;2.70;;;9.10;99.90;;;;;;5035667;28;20108;-87
2023/04/15 12:58:42;;;;;;;7.20;2.70;;;9.10;99.90;;;;;;5018310;28;20176;-88
2023/04/15 13:01:09;;;;;;;8.77;2.67;;;9.00;99.90;;;;;;5001641;28;20041;-88
2023/04/15 13:03:37;;;;;;;8.18;2.70;;;9.00;99.90;;;;;;5034781;28;20056;-88
2023/04/15 13:06:03;;;;;;;8.07;2.50;;;9.00;99.90;;;;;;5003014;28;20048;-86
2023/04/15 13:08:30;;;;;;;7.90;2.40;;;8.90;99.90;;;;;;5034765;28;20459;-88
2023/04/15 13:10:56;;;;;;;8.63;2.80;;;8.80;99.90;;;;;;5018528;28;20436;-88
2023/04/15 13:13:21;;;;;;;8.70;2.80;;;8.80;99.90;;;;;;5028920;28;20112;-88
2023/04/15 13:15:47;;;;;;;9.88;2.70;;;8.80;99.90;;;;;;4998681;28;20054;-87
2023/04/15 13:18:13;;;;;;;9.00;3.00;;;8.80;99.90;;;;;;4998917;28;20049;-86